sensor_id;sensor_type;location;lat;lon;timestamp;temperature;humidity
63648;DHT22;49792;48.744;9.176;2023-03-13T00:01:15;16.60;65.10
63648;DHT22;49792;48.744;9.176;2023-03-13T00:03:41;16.70;64.80
63648;DHT22;49792;48.744;9.176;2023-03-13T00:06:07;16.70;64.80
63648;DHT22;49792;48.744;9.176;2023-03-13T00:08:32;16.70;64.90
63648;DHT22;49792;48.744;9.176;2023-03-13T00:11:01;16.60;64.80
63648;DHT22;49792;48.744;9.176;2023-03-13T00:13:26;16.70;64.90
63648;DHT22;49792;48.744;9.176;2023-03-13T00:15:58;16.70;64.60
63648;DHT22;49792;48.744;9.176;2023-03-13T00:18:23;16.70;64.40
63648;DHT22;49792;48.744;9.176;2023-03-13T00:20:49;16.60;64.20
63648;DHT22;49792;48.744;9.176;2023-03-13T00:23:21;16.70;64.20
63648;DHT22;49792;48.744;9.176;2023-03-13T00:25:47;16.70;64.30
63648;DHT22;49792;48.744;9.176;2023-03-13T00:28:12;16.70;64.20
63648;DHT22;49792;48.744;9.176;2023-03-13T00:30:37;16.70;64.10
63648;DHT22;49792;48.744;9.176;2023-03-13T00:33:03;16.70;64.10
63648;DHT22;49792;48.744;9.176;2023-03-13T00:35:28;16.70;63.90
63648;DHT22;49792;48.744;9.176;2023-03-13T00:37:54;16.50;64.00
63648;DHT22;49792;48.744;9.176;2023-03-13T00:40:19;16.70;64.00
63648;DHT22;49792;48.744;9.176;2023-03-13T00:42:45;16.60;63.90
63648;DHT22;49792;48.744;9.176;2023-03-13T00:45:10;16.60;63.90
63648;DHT22;49792;48.744;9.176;2023-03-13T00:47:36;16.60;64.30
63648;DHT22;49792;48.744;9.176;2023-03-13T00:50:01;16.70;64.10
63648;DHT22;49792;48.744;9.176;2023-03-13T00:52:27;16.60;64.00
63648;DHT22;49792;48.744;9.176;2023-03-13T00:54:52;16.60;64.20
63648;DHT22;49792;48.744;9.176;2023-03-13T00:57:18;16.60;64.10
63648;DHT22;49792;48.744;9.176;2023-03-13T00:59:43;16.40;64.00
63648;DHT22;49792;48.744;9.176;2023-03-13T01:02:08;16.60;64.30
63648;DHT22;49792;48.744;9.176;2023-03-13T01:04:34;16.60;64.40
63648;DHT22;49792;48.744;9.176;2023-03-13T01:06:59;16.60;64.70
63648;DHT22;49792;48.744;9.176;2023-03-13T01:09:25;16.60;64.50
63648;DHT22;49792;48.744;9.176;2023-03-13T01:11:50;16.60;64.60
63648;DHT22;49792;48.744;9.176;2023-03-13T01:14:17;16.60;64.50
63648;DHT22;49792;48.744;9.176;2023-03-13T01:16:43;16.60;64.30
63648;DHT22;49792;48.744;9.176;2023-03-13T01:19:11;16.50;64.40
63648;DHT22;49792;48.744;9.176;2023-03-13T01:21:36;16.60;64.60
63648;DHT22;49792;48.744;9.176;2023-03-13T01:24:02;16.50;64.60
63648;DHT22;49792;48.744;9.176;2023-03-13T01:26:28;16.60;64.60
63648;DHT22;49792;48.744;9.176;2023-03-13T01:28:54;16.60;64.40
63648;DHT22;49792;48.744;9.176;2023-03-13T01:33:46;16.50;64.50
63648;DHT22;49792;48.744;9.176;2023-03-13T01:36:12;16.50;64.30
63648;DHT22;49792;48.744;9.176;2023-03-13T01:38:37;16.60;64.20
63648;DHT22;49792;48.744;9.176;2023-03-13T01:41:03;16.50;64.20
63648;DHT22;49792;48.744;9.176;2023-03-13T01:43:30;16.50;64.20
63648;DHT22;49792;48.744;9.176;2023-03-13T01:45:57;16.50;64.10
63648;DHT22;49792;48.744;9.176;2023-03-13T01:48:25;16.50;64.10
63648;DHT22;49792;48.744;9.176;2023-03-13T01:50:52;16.50;64.20
63648;DHT22;49792;48.744;9.176;2023-03-13T01:53:17;16.70;64.10
63648;DHT22;49792;48.744;9.176;2023-03-13T01:55:43;16.50;63.90
63648;DHT22;49792;48.744;9.176;2023-03-13T01:58:08;16.50;64.00
63648;DHT22;49792;48.744;9.176;2023-03-13T02:00:34;16.50;64.10
63648;DHT22;49792;48.744;9.176;2023-03-13T02:03:01;16.50;64.20
63648;DHT22;49792;48.744;9.176;2023-03-13T02:05:29;16.50;63.80
63648;DHT22;49792;48.744;9.176;2023-03-13T02:10:27;16.50;63.90
63648;DHT22;49792;48.744;9.176;2023-03-13T02:12:53;16.50;63.90
63648;DHT22;49792;48.744;9.176;2023-03-13T02:15:20;16.50;64.00
63648;DHT22;49792;48.744;9.176;2023-03-13T02:17:47;16.50;63.80
63648;DHT22;49792;48.744;9.176;2023-03-13T02:20:13;16.50;63.80
63648;DHT22;49792;48.744;9.176;2023-03-13T02:25:10;16.50;64.40
63648;DHT22;49792;48.744;9.176;2023-03-13T02:27:38;16.50;64.30
63648;DHT22;49792;48.744;9.176;2023-03-13T02:30:04;16.50;64.50
63648;DHT22;49792;48.744;9.176;2023-03-13T02:32:30;16.50;64.60
63648;DHT22;49792;48.744;9.176;2023-03-13T02:34:57;16.50;64.50
63648;DHT22;49792;48.744;9.176;2023-03-13T02:37:25;16.50;64.40
63648;DHT22;49792;48.744;9.176;2023-03-13T02:39:51;16.50;64.50
63648;DHT22;49792;48.744;9.176;2023-03-13T02:42:17;16.50;64.40
63648;DHT22;49792;48.744;9.176;2023-03-13T02:44:44;16.50;64.50
63648;DHT22;49792;48.744;9.176;2023-03-13T02:47:10;16.50;64.50
63648;DHT22;49792;48.744;9.176;2023-03-13T02:49:36;16.50;64.60
63648;DHT22;49792;48.744;9.176;2023-03-13T02:52:12;16.50;64.30
63648;DHT22;49792;48.744;9.176;2023-03-13T02:54:38;16.50;64.30
63648;DHT22;49792;48.744;9.176;2023-03-13T02:57:04;16.50;64.10
63648;DHT22;49792;48.744;9.176;2023-03-13T02:59:30;16.40;64.00
63648;DHT22;49792;48.744;9.176;2023-03-13T03:01:56;16.50;64.00
63648;DHT22;49792;48.744;9.176;2023-03-13T03:04:22;16.50;64.00
63648;DHT22;49792;48.744;9.176;2023-03-13T03:06:48;16.50;63.90
63648;DHT22;49792;48.744;9.176;2023-03-13T03:09:14;16.50;64.00
63648;DHT22;49792;48.744;9.176;2023-03-13T03:11:39;16.50;63.80
63648;DHT22;49792;48.744;9.176;2023-03-13T03:14:05;16.40;64.00
63648;DHT22;49792;48.744;9.176;2023-03-13T03:16:30;16.50;63.80
63648;DHT22;49792;48.744;9.176;2023-03-13T03:18:56;16.50;64.10
63648;DHT22;49792;48.744;9.176;2023-03-13T03:21:21;16.50;63.90
63648;DHT22;49792;48.744;9.176;2023-03-13T03:23:48;16.50;63.90
63648;DHT22;49792;48.744;9.176;2023-03-13T03:26:14;16.50;63.70
63648;DHT22;49792;48.744;9.176;2023-03-13T03:28:39;16.50;64.10
63648;DHT22;49792;48.744;9.176;2023-03-13T03:31:06;16.50;63.90
63648;DHT22;49792;48.744;9.176;2023-03-13T03:33:31;16.40;64.00
63648;DHT22;49792;48.744;9.176;2023-03-13T03:36:00;16.50;63.80
63648;DHT22;49792;48.744;9.176;2023-03-13T03:38:26;16.40;63.70
63648;DHT22;49792;48.744;9.176;2023-03-13T03:40:51;16.50;64.20
63648;DHT22;49792;48.744;9.176;2023-03-13T03:43:17;16.70;63.50
63648;DHT22;49792;48.744;9.176;2023-03-13T03:45:42;16.80;63.10
63648;DHT22;49792;48.744;9.176;2023-03-13T03:48:08;16.90;63.10
63648;DHT22;49792;48.744;9.176;2023-03-13T03:50:33;16.90;63.70
63648;DHT22;49792;48.744;9.176;2023-03-13T03:52:59;16.90;63.60
63648;DHT22;49792;48.744;9.176;2023-03-13T03:55:24;16.80;64.10
63648;DHT22;49792;48.744;9.176;2023-03-13T03:57:50;16.70;64.10
63648;DHT22;49792;48.744;9.176;2023-03-13T04:00:16;16.70;64.30
63648;DHT22;49792;48.744;9.176;2023-03-13T04:02:43;16.70;64.30
63648;DHT22;49792;48.744;9.176;2023-03-13T04:05:08;16.70;64.30
63648;DHT22;49792;48.744;9.176;2023-03-13T04:07:34;16.70;64.10
63648;DHT22;49792;48.744;9.176;2023-03-13T04:09:59;16.70;64.30
63648;DHT22;49792;48.744;9.176;2023-03-13T04:12:25;16.70;64.20
63648;DHT22;49792;48.744;9.176;2023-03-13T04:14:50;16.70;64.30
63648;DHT22;49792;48.744;9.176;2023-03-13T04:17:16;16.70;64.10
63648;DHT22;49792;48.744;9.176;2023-03-13T04:19:41;16.70;64.00
63648;DHT22;49792;48.744;9.176;2023-03-13T04:22:07;16.70;64.00
63648;DHT22;49792;48.744;9.176;2023-03-13T04:24:32;16.70;64.00
63648;DHT22;49792;48.744;9.176;2023-03-13T04:26:58;16.70;63.80
63648;DHT22;49792;48.744;9.176;2023-03-13T04:29:23;16.80;63.90
63648;DHT22;49792;48.744;9.176;2023-03-13T04:31:49;16.70;63.90
63648;DHT22;49792;48.744;9.176;2023-03-13T04:34:15;16.80;63.80
63648;DHT22;49792;48.744;9.176;2023-03-13T04:36:40;16.60;63.80
63648;DHT22;49792;48.744;9.176;2023-03-13T04:39:06;16.70;63.70
63648;DHT22;49792;48.744;9.176;2023-03-13T04:41:31;16.70;63.80
63648;DHT22;49792;48.744;9.176;2023-03-13T04:43:57;16.70;63.80
63648;DHT22;49792;48.744;9.176;2023-03-13T04:46:22;16.70;63.80
63648;DHT22;49792;48.744;9.176;2023-03-13T04:48:48;16.70;63.90
63648;DHT22;49792;48.744;9.176;2023-03-13T04:51:13;16.70;63.80
63648;DHT22;49792;48.744;9.176;2023-03-13T04:53:39;16.60;63.80
63648;DHT22;49792;48.744;9.176;2023-03-13T04:56:04;16.80;63.80
63648;DHT22;49792;48.744;9.176;2023-03-13T04:58:30;16.70;63.70
63648;DHT22;49792;48.744;9.176;2023-03-13T05:00:55;16.70;63.90
63648;DHT22;49792;48.744;9.176;2023-03-13T05:03:21;16.70;63.70
63648;DHT22;49792;48.744;9.176;2023-03-13T05:05:49;16.70;63.70
63648;DHT22;49792;48.744;9.176;2023-03-13T05:08:15;16.70;63.70
63648;DHT22;49792;48.744;9.176;2023-03-13T05:10:41;16.70;63.90
63648;DHT22;49792;48.744;9.176;2023-03-13T05:13:07;16.70;63.80
63648;DHT22;49792;48.744;9.176;2023-03-13T05:15:32;16.70;63.90
63648;DHT22;49792;48.744;9.176;2023-03-13T05:17:58;16.80;63.80
63648;DHT22;49792;48.744;9.176;2023-03-13T05:20:23;16.80;63.90
63648;DHT22;49792;48.744;9.176;2023-03-13T05:22:49;16.70;63.70
63648;DHT22;49792;48.744;9.176;2023-03-13T05:25:14;16.80;63.70
63648;DHT22;49792;48.744;9.176;2023-03-13T05:27:40;16.80;63.70
63648;DHT22;49792;48.744;9.176;2023-03-13T05:30:05;16.80;63.60
63648;DHT22;49792;48.744;9.176;2023-03-13T05:32:31;16.80;63.80
63648;DHT22;49792;48.744;9.176;2023-03-13T05:34:56;16.80;63.70
63648;DHT22;49792;48.744;9.176;2023-03-13T05:37:22;17.00;63.90
63648;DHT22;49792;48.744;9.176;2023-03-13T05:39:47;17.10;63.80
63648;DHT22;49792;48.744;9.176;2023-03-13T05:42:13;17.10;64.60
63648;DHT22;49792;48.744;9.176;2023-03-13T05:44:38;17.20;64.50
63648;DHT22;49792;48.744;9.176;2023-03-13T05:47:04;17.10;64.30
63648;DHT22;49792;48.744;9.176;2023-03-13T05:49:29;17.20;63.90
63648;DHT22;49792;48.744;9.176;2023-03-13T05:51:55;17.20;64.00
63648;DHT22;49792;48.744;9.176;2023-03-13T05:54:20;17.10;64.20
63648;DHT22;49792;48.744;9.176;2023-03-13T05:56:46;17.00;64.00
63648;DHT22;49792;48.744;9.176;2023-03-13T05:59:14;17.00;64.00
63648;DHT22;49792;48.744;9.176;2023-03-13T06:01:40;17.00;64.10
63648;DHT22;49792;48.744;9.176;2023-03-13T06:04:05;17.00;63.90
63648;DHT22;49792;48.744;9.176;2023-03-13T06:06:31;17.00;63.90
63648;DHT22;49792;48.744;9.176;2023-03-13T06:08:56;17.00;63.90
63648;DHT22;49792;48.744;9.176;2023-03-13T06:11:22;17.00;64.00
63648;DHT22;49792;48.744;9.176;2023-03-13T06:13:47;17.00;63.80
63648;DHT22;49792;48.744;9.176;2023-03-13T06:16:15;17.00;63.80
63648;DHT22;49792;48.744;9.176;2023-03-13T06:18:40;17.10;63.60
63648;DHT22;49792;48.744;9.176;2023-03-13T06:21:06;17.10;63.50
63648;DHT22;49792;48.744;9.176;2023-03-13T06:23:31;17.00;63.90
63648;DHT22;49792;48.744;9.176;2023-03-13T06:25:57;16.90;63.60
63648;DHT22;49792;48.744;9.176;2023-03-13T06:28:22;16.90;63.80
63648;DHT22;49792;48.744;9.176;2023-03-13T06:30:48;16.90;63.50
63648;DHT22;49792;48.744;9.176;2023-03-13T06:33:14;17.00;63.20
63648;DHT22;49792;48.744;9.176;2023-03-13T06:35:40;17.00;63.00
63648;DHT22;49792;48.744;9.176;2023-03-13T06:38:05;17.10;63.00
63648;DHT22;49792;48.744;9.176;2023-03-13T06:40:31;17.00;62.90
63648;DHT22;49792;48.744;9.176;2023-03-13T06:42:56;17.00;62.90
63648;DHT22;49792;48.744;9.176;2023-03-13T06:45:22;17.00;62.70
63648;DHT22;49792;48.744;9.176;2023-03-13T06:47:47;17.00;62.80
63648;DHT22;49792;48.744;9.176;2023-03-13T06:50:15;17.00;62.90
63648;DHT22;49792;48.744;9.176;2023-03-13T06:52:41;17.00;62.90
63648;DHT22;49792;48.744;9.176;2023-03-13T06:55:07;17.00;63.50
63648;DHT22;49792;48.744;9.176;2023-03-13T06:57:32;17.00;62.70
63648;DHT22;49792;48.744;9.176;2023-03-13T06:59:58;17.00;62.50
63648;DHT22;49792;48.744;9.176;2023-03-13T07:02:23;17.00;62.70
63648;DHT22;49792;48.744;9.176;2023-03-13T07:04:49;17.00;62.70
63648;DHT22;49792;48.744;9.176;2023-03-13T07:07:14;17.00;62.70
63648;DHT22;49792;48.744;9.176;2023-03-13T07:09:40;17.00;62.50
63648;DHT22;49792;48.744;9.176;2023-03-13T07:12:05;17.00;62.50
63648;DHT22;49792;48.744;9.176;2023-03-13T07:14:31;17.00;62.60
63648;DHT22;49792;48.744;9.176;2023-03-13T07:17:00;17.00;62.70
63648;DHT22;49792;48.744;9.176;2023-03-13T07:19:25;17.00;62.60
63648;DHT22;49792;48.744;9.176;2023-03-13T07:21:51;16.90;62.70
63648;DHT22;49792;48.744;9.176;2023-03-13T07:24:17;17.00;63.50
63648;DHT22;49792;48.744;9.176;2023-03-13T07:26:43;17.00;62.60
63648;DHT22;49792;48.744;9.176;2023-03-13T07:29:09;17.10;62.50
63648;DHT22;49792;48.744;9.176;2023-03-13T07:31:34;17.20;62.80
63648;DHT22;49792;48.744;9.176;2023-03-13T07:34:00;17.20;63.00
63648;DHT22;49792;48.744;9.176;2023-03-13T07:36:25;17.30;62.70
63648;DHT22;49792;48.744;9.176;2023-03-13T07:38:51;17.30;62.70
63648;DHT22;49792;48.744;9.176;2023-03-13T07:41:17;17.20;62.70
63648;DHT22;49792;48.744;9.176;2023-03-13T07:43:43;17.20;62.70
63648;DHT22;49792;48.744;9.176;2023-03-13T07:46:10;17.30;62.60
63648;DHT22;49792;48.744;9.176;2023-03-13T07:48:37;17.20;62.60
63648;DHT22;49792;48.744;9.176;2023-03-13T07:51:03;17.20;62.90
63648;DHT22;49792;48.744;9.176;2023-03-13T07:53:29;17.20;62.70
63648;DHT22;49792;48.744;9.176;2023-03-13T07:58:27;17.20;62.60
63648;DHT22;49792;48.744;9.176;2023-03-13T08:00:53;17.20;62.50
63648;DHT22;49792;48.744;9.176;2023-03-13T08:03:19;17.20;62.40
63648;DHT22;49792;48.744;9.176;2023-03-13T08:05:45;17.20;62.40
63648;DHT22;49792;48.744;9.176;2023-03-13T08:08:10;17.20;62.50
63648;DHT22;49792;48.744;9.176;2023-03-13T08:10:36;17.30;62.50
63648;DHT22;49792;48.744;9.176;2023-03-13T08:13:02;17.20;62.10
63648;DHT22;49792;48.744;9.176;2023-03-13T08:15:27;17.30;62.10
63648;DHT22;49792;48.744;9.176;2023-03-13T08:17:53;17.20;62.30
63648;DHT22;49792;48.744;9.176;2023-03-13T08:20:18;17.30;62.00
63648;DHT22;49792;48.744;9.176;2023-03-13T08:22:44;17.40;61.90
63648;DHT22;49792;48.744;9.176;2023-03-13T08:25:11;17.40;61.70
63648;DHT22;49792;48.744;9.176;2023-03-13T08:27:37;17.40;61.40
63648;DHT22;49792;48.744;9.176;2023-03-13T08:30:02;17.40;61.30
63648;DHT22;49792;48.744;9.176;2023-03-13T08:32:28;17.40;61.20
63648;DHT22;49792;48.744;9.176;2023-03-13T08:34:53;17.40;61.10
63648;DHT22;49792;48.744;9.176;2023-03-13T08:37:19;17.40;61.00
63648;DHT22;49792;48.744;9.176;2023-03-13T08:39:44;17.40;61.00
63648;DHT22;49792;48.744;9.176;2023-03-13T08:42:11;17.50;60.90
63648;DHT22;49792;48.744;9.176;2023-03-13T08:44:38;17.40;60.80
63648;DHT22;49792;48.744;9.176;2023-03-13T08:47:07;17.40;60.80
63648;DHT22;49792;48.744;9.176;2023-03-13T08:49:32;17.50;60.90
63648;DHT22;49792;48.744;9.176;2023-03-13T08:51:58;17.50;60.90
63648;DHT22;49792;48.744;9.176;2023-03-13T08:54:25;17.50;60.90
63648;DHT22;49792;48.744;9.176;2023-03-13T08:56:50;17.50;60.70
63648;DHT22;49792;48.744;9.176;2023-03-13T08:59:16;17.50;60.70
63648;DHT22;49792;48.744;9.176;2023-03-13T09:01:41;17.50;61.60
63648;DHT22;49792;48.744;9.176;2023-03-13T09:04:07;17.40;60.60
63648;DHT22;49792;48.744;9.176;2023-03-13T09:06:33;17.40;60.50
63648;DHT22;49792;48.744;9.176;2023-03-13T09:08:58;17.50;60.60
63648;DHT22;49792;48.744;9.176;2023-03-13T09:11:24;17.50;60.50
63648;DHT22;49792;48.744;9.176;2023-03-13T09:13:50;17.50;60.50
63648;DHT22;49792;48.744;9.176;2023-03-13T09:16:17;17.50;61.30
63648;DHT22;49792;48.744;9.176;2023-03-13T09:18:43;17.40;60.30
63648;DHT22;49792;48.744;9.176;2023-03-13T09:21:11;17.50;60.30
63648;DHT22;49792;48.744;9.176;2023-03-13T09:23:37;17.50;60.30
63648;DHT22;49792;48.744;9.176;2023-03-13T09:26:03;17.50;60.30
63648;DHT22;49792;48.744;9.176;2023-03-13T09:28:29;17.50;60.10
63648;DHT22;49792;48.744;9.176;2023-03-13T09:30:54;17.50;60.00
63648;DHT22;49792;48.744;9.176;2023-03-13T09:33:20;17.50;59.90
63648;DHT22;49792;48.744;9.176;2023-03-13T09:35:48;17.60;60.00
63648;DHT22;49792;48.744;9.176;2023-03-13T09:38:15;17.60;59.90
63648;DHT22;49792;48.744;9.176;2023-03-13T09:40:43;17.60;59.70
63648;DHT22;49792;48.744;9.176;2023-03-13T09:46:02;17.60;59.60
63648;DHT22;49792;48.744;9.176;2023-03-13T09:48:30;17.60;59.70
63648;DHT22;49792;48.744;9.176;2023-03-13T09:53:41;17.60;59.60
63648;DHT22;49792;48.744;9.176;2023-03-13T09:56:12;17.60;59.50
63648;DHT22;49792;48.744;9.176;2023-03-13T09:58:38;17.70;59.50
63648;DHT22;49792;48.744;9.176;2023-03-13T10:01:07;17.60;59.40
63648;DHT22;49792;48.744;9.176;2023-03-13T10:03:44;17.60;59.80
63648;DHT22;49792;48.744;9.176;2023-03-13T10:06:19;17.60;59.70
63648;DHT22;49792;48.744;9.176;2023-03-13T10:08:45;17.60;59.60
63648;DHT22;49792;48.744;9.176;2023-03-13T10:14:10;17.10;60.30
63648;DHT22;49792;48.744;9.176;2023-03-13T10:16:33;17.00;60.60
63648;DHT22;49792;48.744;9.176;2023-03-13T10:19:08;16.90;60.50
63648;DHT22;49792;48.744;9.176;2023-03-13T10:21:35;17.00;60.30
63648;DHT22;49792;48.744;9.176;2023-03-13T10:24:16;17.10;60.50
63648;DHT22;49792;48.744;9.176;2023-03-13T10:26:42;17.30;59.60
63648;DHT22;49792;48.744;9.176;2023-03-13T10:29:23;17.40;59.30
63648;DHT22;49792;48.744;9.176;2023-03-13T10:31:56;17.40;59.10
63648;DHT22;49792;48.744;9.176;2023-03-13T10:34:22;17.50;58.90
63648;DHT22;49792;48.744;9.176;2023-03-13T10:36:49;17.50;58.80
63648;DHT22;49792;48.744;9.176;2023-03-13T10:39:15;17.50;58.80
63648;DHT22;49792;48.744;9.176;2023-03-13T10:41:41;17.60;58.80
63648;DHT22;49792;48.744;9.176;2023-03-13T10:44:22;17.60;58.70
63648;DHT22;49792;48.744;9.176;2023-03-13T10:46:48;17.60;58.70
63648;DHT22;49792;48.744;9.176;2023-03-13T10:49:21;17.60;58.60
63648;DHT22;49792;48.744;9.176;2023-03-13T10:51:54;17.60;58.70
63648;DHT22;49792;48.744;9.176;2023-03-13T10:54:25;17.60;58.80
63648;DHT22;49792;48.744;9.176;2023-03-13T10:56:51;17.60;58.60
63648;DHT22;49792;48.744;9.176;2023-03-13T10:59:24;17.70;58.70
63648;DHT22;49792;48.744;9.176;2023-03-13T11:01:49;17.70;58.70
63648;DHT22;49792;48.744;9.176;2023-03-13T11:04:19;17.70;58.70
63648;DHT22;49792;48.744;9.176;2023-03-13T11:06:52;17.60;58.80
63648;DHT22;49792;48.744;9.176;2023-03-13T11:09:22;17.60;58.90
63648;DHT22;49792;48.744;9.176;2023-03-13T11:11:49;17.50;58.90
63648;DHT22;49792;48.744;9.176;2023-03-13T11:16:48;17.60;59.10
63648;DHT22;49792;48.744;9.176;2023-03-13T11:24:25;17.70;59.20
63648;DHT22;49792;48.744;9.176;2023-03-13T11:29:21;17.70;59.20
63648;DHT22;49792;48.744;9.176;2023-03-13T11:31:53;17.50;59.10
63648;DHT22;49792;48.744;9.176;2023-03-13T11:34:22;17.70;59.00
63648;DHT22;49792;48.744;9.176;2023-03-13T11:47:07;17.80;58.50
63648;DHT22;49792;48.744;9.176;2023-03-13T11:49:58;17.80;58.50
63648;DHT22;49792;48.744;9.176;2023-03-13T11:57:55;17.80;58.40
63648;DHT22;49792;48.744;9.176;2023-03-13T12:05:37;17.80;58.40
63648;DHT22;49792;48.744;9.176;2023-03-13T12:08:06;17.80;58.40
63648;DHT22;49792;48.744;9.176;2023-03-13T12:10:40;17.80;58.40
63648;DHT22;49792;48.744;9.176;2023-03-13T12:15:36;17.80;58.40
63648;DHT22;49792;48.744;9.176;2023-03-13T12:18:05;17.80;58.40
63648;DHT22;49792;48.744;9.176;2023-03-13T12:25:38;17.80;58.40
63648;DHT22;49792;48.744;9.176;2023-03-13T12:28:28;17.80;58.30
63648;DHT22;49792;48.744;9.176;2023-03-13T12:33:45;17.90;58.20
63648;DHT22;49792;48.744;9.176;2023-03-13T12:36:15;17.90;58.10
63648;DHT22;49792;48.744;9.176;2023-03-13T12:38:49;17.80;58.10
63648;DHT22;49792;48.744;9.176;2023-03-13T12:41:19;17.90;58.20
63648;DHT22;49792;48.744;9.176;2023-03-13T12:43:50;17.80;58.40
63648;DHT22;49792;48.744;9.176;2023-03-13T12:51:21;17.50;59.80
63648;DHT22;49792;48.744;9.176;2023-03-13T12:56:33;17.90;59.30
63648;DHT22;49792;48.744;9.176;2023-03-13T12:59:18;17.90;59.00
63648;DHT22;49792;48.744;9.176;2023-03-13T13:01:46;17.90;58.90
63648;DHT22;49792;48.744;9.176;2023-03-13T13:04:16;17.90;59.20
63648;DHT22;49792;48.744;9.176;2023-03-13T13:09:28;18.00;60.10
63648;DHT22;49792;48.744;9.176;2023-03-13T13:11:59;18.10;60.60
63648;DHT22;49792;48.744;9.176;2023-03-13T13:24:50;18.00;61.10
63648;DHT22;49792;48.744;9.176;2023-03-13T13:37:40;18.10;61.60
63648;DHT22;49792;48.744;9.176;2023-03-13T13:42:59;18.20;61.70
63648;DHT22;49792;48.744;9.176;2023-03-13T13:45:32;18.20;61.70
63648;DHT22;49792;48.744;9.176;2023-03-13T13:51:28;18.10;63.60
63648;DHT22;49792;48.744;9.176;2023-03-13T13:53:30;18.10;63.00
63648;DHT22;49792;48.744;9.176;2023-03-13T13:55:55;18.10;63.30
63648;DHT22;49792;48.744;9.176;2023-03-13T13:58:26;18.10;62.40
63648;DHT22;49792;48.744;9.176;2023-03-13T14:00:53;18.10;62.40
63648;DHT22;49792;48.744;9.176;2023-03-13T14:03:24;18.00;62.20
63648;DHT22;49792;48.744;9.176;2023-03-13T14:05:51;18.10;62.10
63648;DHT22;49792;48.744;9.176;2023-03-13T14:08:21;18.10;61.90
63648;DHT22;49792;48.744;9.176;2023-03-13T14:11:04;18.10;61.80
63648;DHT22;49792;48.744;9.176;2023-03-13T14:13:31;18.10;62.40
63648;DHT22;49792;48.744;9.176;2023-03-13T14:15:57;18.10;61.30
63648;DHT22;49792;48.744;9.176;2023-03-13T14:18:40;18.10;61.70
63648;DHT22;49792;48.744;9.176;2023-03-13T14:21:05;18.10;61.60
63648;DHT22;49792;48.744;9.176;2023-03-13T14:23:42;18.20;61.30
63648;DHT22;49792;48.744;9.176;2023-03-13T14:26:08;18.10;61.40
63648;DHT22;49792;48.744;9.176;2023-03-13T14:28:34;18.20;61.50
63648;DHT22;49792;48.744;9.176;2023-03-13T14:31:03;18.30;61.30
63648;DHT22;49792;48.744;9.176;2023-03-13T14:33:28;18.40;60.70
63648;DHT22;49792;48.744;9.176;2023-03-13T14:35:54;18.50;60.30
63648;DHT22;49792;48.744;9.176;2023-03-13T14:38:22;18.50;60.20
63648;DHT22;49792;48.744;9.176;2023-03-13T14:40:48;18.40;60.50
63648;DHT22;49792;48.744;9.176;2023-03-13T14:43:33;18.50;60.20
63648;DHT22;49792;48.744;9.176;2023-03-13T14:45:59;18.50;60.30
63648;DHT22;49792;48.744;9.176;2023-03-13T14:48:29;18.60;60.40
63648;DHT22;49792;48.744;9.176;2023-03-13T14:53:28;18.60;59.80
63648;DHT22;49792;48.744;9.176;2023-03-13T14:56:10;18.70;59.80
63648;DHT22;49792;48.744;9.176;2023-03-13T14:58:36;18.80;59.50
63648;DHT22;49792;48.744;9.176;2023-03-13T15:01:11;18.80;59.80
63648;DHT22;49792;48.744;9.176;2023-03-13T15:03:42;19.00;59.70
63648;DHT22;49792;48.744;9.176;2023-03-13T15:08:37;19.00;59.90
63648;DHT22;49792;48.744;9.176;2023-03-13T15:11:15;18.90;59.20
63648;DHT22;49792;48.744;9.176;2023-03-13T15:13:41;18.80;60.00
63648;DHT22;49792;48.744;9.176;2023-03-13T15:16:17;18.90;59.60
63648;DHT22;49792;48.744;9.176;2023-03-13T15:18:44;18.90;59.60
63648;DHT22;49792;48.744;9.176;2023-03-13T15:23:41;18.60;60.10
63648;DHT22;49792;48.744;9.176;2023-03-13T15:26:07;18.60;60.20
63648;DHT22;49792;48.744;9.176;2023-03-13T15:28:33;18.60;59.80
63648;DHT22;49792;48.744;9.176;2023-03-13T15:30:58;18.60;59.70
63648;DHT22;49792;48.744;9.176;2023-03-13T15:33:25;18.60;59.70
63648;DHT22;49792;48.744;9.176;2023-03-13T15:35:51;18.50;59.30
63648;DHT22;49792;48.744;9.176;2023-03-13T15:38:18;18.50;60.00
63648;DHT22;49792;48.744;9.176;2023-03-13T15:40:44;18.50;59.50
63648;DHT22;49792;48.744;9.176;2023-03-13T15:43:13;18.40;59.70
63648;DHT22;49792;48.744;9.176;2023-03-13T15:45:42;18.40;59.30
63648;DHT22;49792;48.744;9.176;2023-03-13T15:48:22;18.40;59.60
63648;DHT22;49792;48.744;9.176;2023-03-13T15:50:49;18.30;59.50
63648;DHT22;49792;48.744;9.176;2023-03-13T15:53:18;18.30;59.60
63648;DHT22;49792;48.744;9.176;2023-03-13T15:55:44;18.30;59.70
63648;DHT22;49792;48.744;9.176;2023-03-13T15:58:10;18.30;59.50
63648;DHT22;49792;48.744;9.176;2023-03-13T16:00:36;18.30;59.90
63648;DHT22;49792;48.744;9.176;2023-03-13T16:03:01;18.40;59.80
63648;DHT22;49792;48.744;9.176;2023-03-13T16:05:27;18.40;60.00
63648;DHT22;49792;48.744;9.176;2023-03-13T16:07:59;18.40;59.90
63648;DHT22;49792;48.744;9.176;2023-03-13T16:10:40;18.30;60.10
63648;DHT22;49792;48.744;9.176;2023-03-13T16:13:06;18.60;59.90
63648;DHT22;49792;48.744;9.176;2023-03-13T16:15:33;18.60;59.50
63648;DHT22;49792;48.744;9.176;2023-03-13T16:17:59;18.60;59.80
63648;DHT22;49792;48.744;9.176;2023-03-13T16:20:24;18.70;59.60
63648;DHT22;49792;48.744;9.176;2023-03-13T16:22:51;18.60;59.40
63648;DHT22;49792;48.744;9.176;2023-03-13T16:25:16;18.60;59.40
63648;DHT22;49792;48.744;9.176;2023-03-13T16:27:45;18.70;59.30
63648;DHT22;49792;48.744;9.176;2023-03-13T16:30:18;18.70;60.70
63648;DHT22;49792;48.744;9.176;2023-03-13T16:32:45;18.90;65.20
63648;DHT22;49792;48.744;9.176;2023-03-13T16:35:11;18.80;62.60
63648;DHT22;49792;48.744;9.176;2023-03-13T16:37:36;18.60;63.50
63648;DHT22;49792;48.744;9.176;2023-03-13T16:40:02;18.50;65.00
63648;DHT22;49792;48.744;9.176;2023-03-13T16:42:30;18.40;63.20
63648;DHT22;49792;48.744;9.176;2023-03-13T16:44:55;18.40;65.60
63648;DHT22;49792;48.744;9.176;2023-03-13T16:47:22;18.40;65.60
63648;DHT22;49792;48.744;9.176;2023-03-13T16:49:49;18.40;66.00
63648;DHT22;49792;48.744;9.176;2023-03-13T16:52:17;18.40;65.80
63648;DHT22;49792;48.744;9.176;2023-03-13T16:54:43;18.40;64.60
63648;DHT22;49792;48.744;9.176;2023-03-13T16:57:13;18.30;64.90
63648;DHT22;49792;48.744;9.176;2023-03-13T16:59:39;18.40;64.90
63648;DHT22;49792;48.744;9.176;2023-03-13T17:02:09;18.40;64.80
63648;DHT22;49792;48.744;9.176;2023-03-13T17:04:40;18.40;64.70
63648;DHT22;49792;48.744;9.176;2023-03-13T17:07:19;18.30;64.50
63648;DHT22;49792;48.744;9.176;2023-03-13T17:09:45;18.30;64.50
63648;DHT22;49792;48.744;9.176;2023-03-13T17:12:11;18.40;64.00
63648;DHT22;49792;48.744;9.176;2023-03-13T17:14:36;18.50;63.40